Time;durP1;ratioP1;P1;durP2;ratioP2;P2;SDS_P1;SDS_P2;PMS_P1;PMS_P2;Temp;Humidity;BMP_temperature;BMP_pressure;BME280_temperature;BME280_humidity;BME280_pressure;Samples;Min_cycle;Max_cycle;Signal;HPM_P1;HPM_P2
2022/12/13 00:00:55;;;;;;;33.80;15.02;;;-7.30;15.40;;;;;;5050431;28;20033;-79
2022/12/13 00:03:21;;;;;;;28.20;12.65;;;-7.30;17.50;;;;;;5051351;28;20032;-79
2022/12/13 00:05:47;;;;;;;27.35;12.65;;;-7.30;19.10;;;;;;5051603;28;20029;-79
2022/12/13 00:08:13;;;;;;;27.48;13.13;;;-7.30;19.60;;;;;;5052732;28;20056;-79
2022/12/13 00:10:39;;;;;;;28.17;12.50;;;-7.30;19.60;;;;;;5051223;28;20036;-78
2022/12/13 00:13:05;;;;;;;30.05;13.18;;;-7.30;20.10;;;;;;5050861;28;20051;-79
2022/12/13 00:15:32;;;;;;;27.85;13.35;;;-7.40;20.70;;;;;;5051831;28;20033;-80
2022/12/13 00:17:58;;;;;;;24.20;11.95;;;-7.40;20.60;;;;;;5051142;28;20037;-79
2022/12/13 00:20:24;;;;;;;31.10;13.05;;;-7.40;19.90;;;;;;5051783;28;20041;-79
2022/12/13 00:22:53;;;;;;;29.83;13.93;;;-7.50;19.80;;;;;;5049554;28;20032;-79
2022/12/13 00:25:20;;;;;;;24.83;11.75;;;-7.50;19.60;;;;;;5033355;28;20041;-79
2022/12/13 00:27:46;;;;;;;25.25;12.65;;;-7.50;20.30;;;;;;5033231;28;20043;-79
2022/12/13 00:30:12;;;;;;;28.52;14.43;;;-7.50;20.30;;;;;;5051591;28;20032;-79
2022/12/13 00:32:39;;;;;;;31.23;11.77;;;-7.50;21.20;;;;;;5049331;28;20048;-78
2022/12/13 00:35:05;;;;;;;26.38;12.70;;;-7.50;22.00;;;;;;5051751;28;20033;-79
2022/12/13 00:37:31;;;;;;;26.92;13.60;;;-7.40;23.60;;;;;;5051675;28;20390;-79
2022/12/13 00:39:57;;;;;;;28.40;12.13;;;-7.40;24.50;;;;;;5053385;28;20481;-79
2022/12/13 00:42:23;;;;;;;32.25;13.82;;;-7.50;24.60;;;;;;5056508;28;20040;-79
2022/12/13 00:44:50;;;;;;;28.75;12.55;;;-7.50;26.50;;;;;;5056173;28;20379;-79
2022/12/13 00:47:17;;;;;;;29.50;13.02;;;-7.40;29.70;;;;;;5056201;28;20041;-79
2022/12/13 00:49:44;;;;;;;32.20;12.82;;;-7.40;31.20;;;;;;5054582;28;20470;-79
2022/12/13 00:52:10;;;;;;;36.10;14.95;;;-7.40;31.80;;;;;;5054458;28;20033;-79
2022/12/13 00:54:36;;;;;;;32.63;13.90;;;-7.40;31.60;;;;;;5055550;28;20033;-79
2022/12/13 00:57:02;;;;;;;28.35;13.55;;;-7.40;32.30;;;;;;5054955;28;20048;-79
2022/12/13 00:59:28;;;;;;;29.60;12.95;;;-7.40;32.70;;;;;;5055729;28;20033;-79
2022/12/13 01:01:54;;;;;;;32.28;14.38;;;-7.40;32.20;;;;;;5056210;28;20033;-76
2022/12/13 01:04:21;;;;;;;31.67;13.20;;;-7.30;32.40;;;;;;5056201;28;20033;-77
2022/12/13 01:06:50;;;;;;;30.55;12.82;;;-7.40;32.20;;;;;;5022766;28;20046;-77
2022/12/13 01:09:22;;;;;;;29.95;14.48;;;-7.40;29.60;;;;;;5057710;28;20053;-77
2022/12/13 01:11:49;;;;;;;32.63;14.40;;;-7.40;29.30;;;;;;5055707;28;20029;-77
2022/12/13 01:14:17;;;;;;;29.10;12.80;;;-7.40;29.90;;;;;;5056528;28;20025;-77
2022/12/13 01:16:43;;;;;;;36.80;13.55;;;-7.40;27.70;;;;;;5055530;28;20033;-77
2022/12/13 01:19:09;;;;;;;29.70;13.02;;;-7.30;27.70;;;;;;5055514;28;20037;-77
2022/12/13 01:21:35;;;;;;;27.65;12.75;;;-7.40;27.50;;;;;;5054513;28;20029;-79
2022/12/13 01:24:05;;;;;;;28.63;11.98;;;-7.40;25.70;;;;;;5054857;28;20454;-79
2022/12/13 01:26:32;;;;;;;22.42;10.85;;;-7.40;26.90;;;;;;5055357;28;20049;-79
2022/12/13 01:28:59;;;;;;;28.88;13.02;;;-7.40;27.60;;;;;;5055003;28;20032;-79
2022/12/13 01:31:25;;;;;;;34.90;14.82;;;-7.40;26.90;;;;;;5053967;28;20029;-79
2022/12/13 01:33:51;;;;;;;34.85;13.65;;;-7.40;26.70;;;;;;5054511;28;20044;-77
2022/12/13 01:36:20;;;;;;;30.80;13.55;;;-7.40;24.90;;;;;;5037120;28;20052;-80
2022/12/13 01:38:46;;;;;;;31.77;14.68;;;-7.50;24.50;;;;;;5054635;28;20040;-77
2022/12/13 01:41:18;;;;;;;27.30;12.02;;;-7.50;24.30;;;;;;5053481;28;20355;-79
2022/12/13 01:43:53;;;;;;;27.80;13.00;;;-7.50;23.30;;;;;;5036486;28;20036;-79
2022/12/13 01:46:20;;;;;;;34.33;14.38;;;-7.50;22.50;;;;;;5054474;28;20052;-79
2022/12/13 01:49:01;;;;;;;27.60;11.13;;;-7.50;22.30;;;;;;5053879;28;20029;-79
2022/12/13 01:52:01;;;;;;;24.17;11.27;;;-7.60;21.40;;;;;;5051976;28;20029;-79
2022/12/13 01:54:33;;;;;;;26.20;10.68;;;-7.60;22.20;;;;;;5036580;28;20041;-79
2022/12/13 01:57:00;;;;;;;;;;;-7.60;23.00;;;;;;5054182;28;20047;-79
2022/12/13 01:59:27;;;;;;;23.48;10.18;;;-7.70;22.90;;;;;;5054754;28;19916;-79
2022/12/13 02:01:53;;;;;;;27.45;10.98;;;-7.60;23.90;;;;;;5052498;28;20378;-79
2022/12/13 02:04:28;;;;;;;28.88;12.77;;;-7.70;24.50;;;;;;5054609;28;20036;-79
2022/12/13 02:06:57;;;;;;;21.75;10.95;;;-7.70;24.50;;;;;;5053795;28;20053;-79
2022/12/13 02:09:25;;;;;;;29.27;12.60;;;-7.70;24.40;;;;;;5053810;28;20053;-79
2022/12/13 02:11:51;;;;;;;30.50;13.93;;;-7.70;25.10;;;;;;5052127;28;20037;-79
2022/12/13 02:14:19;;;;;;;32.67;13.00;;;-7.70;26.50;;;;;;5050895;28;20458;-78
2022/12/13 02:17:02;;;;;;;32.67;14.43;;;-7.70;26.90;;;;;;5044926;28;20048;-79
2022/12/13 02:19:47;;;;;;;31.30;12.50;;;-7.70;26.90;;;;;;5045063;28;20032;-79
2022/12/13 02:22:55;;;;;;;29.88;11.18;;;-7.80;27.50;;;;;;5026915;28;20039;-79
2022/12/13 02:25:49;;;;;;;26.15;10.57;;;-7.80;28.10;;;;;;5042875;28;20060;-79
2022/12/13 02:28:43;;;;;;;24.25;12.63;;;-7.80;28.20;;;;;;5035747;28;20064;-79
2022/12/13 02:31:12;;;;;;;26.15;11.50;;;-7.90;27.70;;;;;;5054305;28;20040;-79
2022/12/13 02:34:22;;;;;;;36.25;12.20;;;-7.90;27.50;;;;;;5053605;28;20032;-79
2022/12/13 02:37:01;;;;;;;32.08;12.02;;;-7.90;28.20;;;;;;4951648;29;20150;-80
2022/12/13 02:39:35;;;;;;;28.27;11.57;;;-7.90;27.30;;;;;;4953432;29;20517;-79
2022/12/13 02:42:09;;;;;;;26.30;10.23;;;-7.80;29.20;;;;;;4937152;29;20039;-79
2022/12/13 02:44:51;;;;;;;32.78;14.38;;;-7.80;29.00;;;;;;4953370;29;20047;-80
2022/12/13 02:47:21;;;;;;;32.42;11.82;;;-7.80;28.70;;;;;;4951469;29;20508;-79
2022/12/13 02:49:58;;;;;;;27.77;11.55;;;-7.80;27.90;;;;;;4953046;29;20528;-80
2022/12/13 02:52:26;;;;;;;36.13;13.90;;;-7.80;26.40;;;;;;4953125;29;20066;-80
2022/12/13 02:54:54;;;;;;;33.13;12.40;;;-7.80;25.40;;;;;;4952481;29;20047;-80
2022/12/13 02:57:40;;;;;;;34.75;14.93;;;-7.80;23.50;;;;;;4951457;29;20043;-79
2022/12/13 03:00:13;;;;;;;26.67;13.20;;;-7.80;22.40;;;;;;4945709;29;20050;-79
2022/12/13 03:03:09;;;;;;;25.50;11.50;;;-7.90;21.40;;;;;;4952783;28;20191;-80
2022/12/13 03:06:28;;;;;;;32.67;14.75;;;-7.90;20.60;;;;;;4951024;29;20031;-79
2022/12/13 03:09:27;;;;;;;27.02;11.95;;;-7.90;19.40;;;;;;5055374;28;20049;-80
2022/12/13 03:15:17;;;;;;;27.63;12.35;;;-8.00;18.30;;;;;;5052894;28;20470;-79
2022/12/13 03:17:59;;;;;;;31.83;13.55;;;-8.00;17.50;;;;;;5034279;28;20033;-79
2022/12/13 03:20:28;;;;;;;28.92;12.35;;;-7.90;18.70;;;;;;5052662;28;20029;-79
2022/12/13 03:22:55;;;;;;;27.42;12.32;;;-7.90;19.30;;;;;;5052046;28;20037;-80
2022/12/13 03:25:26;;;;;;;29.65;13.45;;;-7.90;18.10;;;;;;5051566;28;20374;-79
2022/12/13 03:27:52;;;;;;;36.08;15.38;;;-7.90;16.70;;;;;;5033576;28;20045;-80
2022/12/13 03:30:19;;;;;;;33.05;13.32;;;-7.90;15.50;;;;;;5052745;28;20029;-79
2022/12/13 03:32:45;;;;;;;30.33;12.40;;;-8.00;15.00;;;;;;5052805;28;20385;-79
2022/12/13 03:35:11;;;;;;;29.55;12.77;;;-8.10;13.40;;;;;;5051648;28;20578;-79
2022/12/13 03:37:37;;;;;;;25.13;13.13;;;-8.10;12.50;;;;;;5052125;28;20029;-80
2022/12/13 03:40:04;;;;;;;31.13;11.30;;;-8.10;13.00;;;;;;5054744;28;20033;-80
2022/12/13 03:42:30;;;;;;;31.17;11.70;;;-8.20;12.60;;;;;;5053992;28;20025;-79
2022/12/13 03:44:56;;;;;;;26.63;11.90;;;-8.20;11.50;;;;;;5036189;28;20029;-79
2022/12/13 03:47:23;;;;;;;27.60;13.57;;;-8.30;10.80;;;;;;5050556;28;20093;-79
2022/12/13 03:49:49;;;;;;;27.48;11.85;;;-8.40;9.30;;;;;;5051530;28;20031;-78
2022/12/13 03:52:15;;;;;;;27.45;11.50;;;-8.40;9.70;;;;;;5051995;28;20044;-79
2022/12/13 03:54:41;;;;;;;28.10;11.38;;;-8.40;9.70;;;;;;5052297;28;20032;-79
2022/12/13 03:57:07;;;;;;;26.73;11.98;;;-8.30;11.60;;;;;;5049800;28;20293;-79
2022/12/13 03:59:33;;;;;;;28.77;13.13;;;-8.20;14.10;;;;;;5052156;28;20033;-79
2022/12/13 04:01:59;;;;;;;25.15;11.30;;;-8.20;14.60;;;;;;5051224;28;20040;-79
2022/12/13 04:04:25;;;;;;;23.55;13.18;;;-8.20;13.80;;;;;;5033583;28;20041;-79
2022/12/13 04:06:52;;;;;;;28.45;14.07;;;-8.30;13.10;;;;;;5031153;28;20060;-79
2022/12/13 04:09:18;;;;;;;32.78;12.80;;;-8.30;12.70;;;;;;5052110;28;20133;-79
2022/12/13 04:14:28;;;;;;;29.92;12.68;;;-8.40;11.30;;;;;;5052316;28;20051;-79
2022/12/13 04:16:55;;;;;;;20.25;10.25;;;-8.40;11.30;;;;;;5053745;28;20049;-78
2022/12/13 04:19:21;;;;;;;31.20;13.55;;;-8.50;9.70;;;;;;5056562;28;20037;-79
2022/12/13 04:21:47;;;;;;;24.83;11.27;;;-8.60;9.10;;;;;;5052940;28;20028;-78
2022/12/13 04:24:13;;;;;;;22.30;10.63;;;-8.60;8.80;;;;;;5051815;28;20056;-79
2022/12/13 04:26:39;;;;;;;24.90;12.07;;;-8.70;9.10;;;;;;5051018;28;20481;-78
2022/12/13 04:29:05;;;;;;;25.50;11.63;;;-8.70;9.30;;;;;;5051922;28;20040;-78
2022/12/13 04:31:31;;;;;;;31.65;12.07;;;-8.60;11.30;;;;;;5052493;28;20021;-79
2022/12/13 04:33:58;;;;;;;32.30;13.85;;;-8.60;12.10;;;;;;5033311;28;20041;-78
2022/12/13 04:36:24;;;;;;;30.23;12.85;;;-8.50;12.70;;;;;;5051046;28;20029;-79
2022/12/13 04:38:50;;;;;;;32.13;13.77;;;-8.50;12.20;;;;;;5033885;28;20041;-78
2022/12/13 04:41:18;;;;;;;28.35;11.88;;;-8.50;12.80;;;;;;5052457;28;20048;-78
2022/12/13 04:43:51;;;;;;;25.35;11.43;;;-8.50;13.80;;;;;;5052618;28;20466;-78
2022/12/13 04:46:20;;;;;;;28.25;14.10;;;-8.50;13.40;;;;;;5051029;28;20033;-78
2022/12/13 04:48:47;;;;;;;26.15;11.80;;;-8.50;12.20;;;;;;5048664;28;20475;-78
2022/12/13 04:51:15;;;;;;;26.00;12.43;;;-8.50;12.90;;;;;;5051372;28;20037;-79
2022/12/13 04:53:41;;;;;;;30.58;11.60;;;-8.50;11.80;;;;;;5054605;28;20029;-78
2022/12/13 04:56:07;;;;;;;33.25;13.40;;;-8.50;10.50;;;;;;5054167;28;20044;-78
2022/12/13 04:58:33;;;;;;;29.17;12.65;;;-8.60;9.60;;;;;;5053241;28;20045;-78
2022/12/13 05:00:59;;;;;;;32.13;13.18;;;-8.70;7.90;;;;;;5050665;28;20083;-78
2022/12/13 05:03:26;;;;;;;30.77;11.57;;;-8.70;6.50;;;;;;5051624;28;20032;-78
2022/12/13 05:05:53;;;;;;;31.80;13.80;;;-8.70;6.90;;;;;;5049813;28;20029;-78
2022/12/13 05:08:19;;;;;;;29.45;11.65;;;-8.60;9.80;;;;;;5051826;28;20049;-78
2022/12/13 05:10:45;;;;;;;23.55;11.13;;;-8.60;10.90;;;;;;5052050;28;20394;-78
2022/12/13 05:13:11;;;;;;;30.20;12.95;;;-8.70;9.70;;;;;;5051174;28;20052;-78
2022/12/13 05:15:37;;;;;;;30.17;14.35;;;-8.80;7.90;;;;;;5050250;28;20076;-78
2022/12/13 05:18:05;;;;;;;25.02;10.90;;;-8.80;8.20;;;;;;5054830;28;20389;-78
2022/12/13 05:20:34;;;;;;;25.00;11.30;;;-8.80;9.00;;;;;;5052678;28;20033;-78
2022/12/13 05:23:00;;;;;;;29.98;11.68;;;-8.70;10.30;;;;;;5051120;28;20044;-78
2022/12/13 05:25:27;;;;;;;34.50;13.23;;;-8.70;10.90;;;;;;5051514;28;20355;-78
2022/12/13 05:27:54;;;;;;;27.77;11.18;;;-8.70;10.60;;;;;;5054920;28;20386;-78
2022/12/13 05:30:20;;;;;;;31.33;12.20;;;-8.70;13.20;;;;;;5056692;28;20060;-78
2022/12/13 05:32:47;;;;;;;32.83;13.10;;;-8.60;14.90;;;;;;5055358;28;20032;-78
2022/12/13 05:35:14;;;;;;;26.33;12.43;;;-8.70;14.00;;;;;;5052760;28;20041;-78
2022/12/13 05:37:40;;;;;;;21.95;10.88;;;-8.70;13.60;;;;;;5036079;28;20052;-78
2022/12/13 05:40:08;;;;;;;26.98;10.60;;;-8.60;14.50;;;;;;5053813;28;20037;-79
2022/12/13 05:42:37;;;;;;;33.80;12.85;;;-8.70;13.30;;;;;;5054566;28;20078;-78
2022/12/13 05:45:06;;;;;;;22.65;10.93;;;-8.70;12.80;;;;;;5052808;28;20056;-78
2022/12/13 05:47:32;;;;;;;33.38;13.80;;;-8.70;13.20;;;;;;5035914;28;20044;-78
2022/12/13 05:49:58;;;;;;;25.65;12.73;;;-8.70;14.60;;;;;;5053748;28;20040;-77
2022/12/13 05:52:24;;;;;;;31.25;13.18;;;-8.60;16.60;;;;;;5053963;28;20497;-75
2022/12/13 05:54:55;;;;;;;32.00;13.32;;;-8.50;20.20;;;;;;5054139;28;20044;-77
2022/12/13 05:57:22;;;;;;;45.70;16.40;;;-8.40;21.90;;;;;;5053176;28;20037;-77
2022/12/13 05:59:48;;;;;;;32.40;12.65;;;-8.30;24.10;;;;;;5054262;28;20041;-77
2022/12/13 06:02:16;;;;;;;38.75;16.25;;;-8.20;25.90;;;;;;5053882;28;20041;-78
2022/12/13 06:04:43;;;;;;;33.10;15.10;;;-8.20;26.80;;;;;;5054008;28;20028;-77
2022/12/13 06:07:10;;;;;;;31.73;16.27;;;-8.10;31.00;;;;;;5051457;28;20104;-78
2022/12/13 06:09:36;;;;;;;36.63;14.00;;;-7.90;33.60;;;;;;5035900;28;20045;-78
2022/12/13 06:12:03;;;;;;;39.05;15.30;;;-7.90;33.00;;;;;;5053296;28;20039;-78
2022/12/13 06:14:29;;;;;;;37.70;17.38;;;-7.90;31.60;;;;;;5039657;28;20037;-77
2022/12/13 06:16:55;;;;;;;31.20;16.30;;;-7.90;30.10;;;;;;5035447;28;20040;-82
2022/12/13 06:19:22;;;;;;;40.60;15.77;;;-7.80;29.90;;;;;;5054349;28;20029;-82
2022/12/13 06:21:53;;;;;;;35.83;16.38;;;-7.80;29.40;;;;;;5054289;28;20036;-81
2022/12/13 06:24:21;;;;;;;35.70;15.32;;;-7.70;28.00;;;;;;5053907;28;20044;-82
2022/12/13 06:26:50;;;;;;;41.00;16.33;;;-7.80;25.90;;;;;;5051856;28;20454;-81
2022/12/13 06:29:20;;;;;;;35.03;16.60;;;-7.70;24.80;;;;;;5053414;28;20028;-82
2022/12/13 06:31:47;;;;;;;45.42;18.92;;;-7.70;24.70;;;;;;5054089;28;20037;-81
2022/12/13 06:34:13;;;;;;;43.03;16.73;;;-7.80;22.50;;;;;;5053179;28;20473;-81
2022/12/13 06:36:39;;;;;;;40.15;17.77;;;-7.80;22.70;;;;;;5052208;28;20044;-82
2022/12/13 06:39:06;;;;;;;41.63;16.80;;;-7.70;23.00;;;;;;5054140;28;20048;-82
2022/12/13 06:41:33;;;;;;;38.28;17.98;;;-7.70;24.00;;;;;;5053872;28;20036;-82
2022/12/13 06:43:59;;;;;;;34.83;16.08;;;-7.60;25.50;;;;;;5052796;28;20032;-79
2022/12/13 06:46:28;;;;;;;37.97;16.60;;;-7.70;24.40;;;;;;5052108;28;20051;-82
2022/12/13 06:48:56;;;;;;;44.33;20.25;;;-7.70;24.50;;;;;;5052913;28;20398;-79
2022/12/13 06:51:23;;;;;;;43.15;19.95;;;-7.60;25.20;;;;;;5053075;28;20041;-82
2022/12/13 06:53:49;;;;;;;48.30;21.63;;;-7.50;25.70;;;;;;5035285;28;20048;-81
2022/12/13 06:56:15;;;;;;;44.22;19.65;;;-7.50;24.60;;;;;;5051721;28;20029;-81
2022/12/13 06:58:42;;;;;;;39.75;19.58;;;-7.50;24.30;;;;;;5053158;28;20036;-81
2022/12/13 07:01:13;;;;;;;43.85;18.60;;;-7.50;23.20;;;;;;5056154;28;20458;-81
2022/12/13 07:03:40;;;;;;;47.95;21.75;;;-7.50;22.20;;;;;;5057107;28;20037;-81
2022/12/13 07:06:10;;;;;;;38.17;17.00;;;-7.50;21.20;;;;;;5052221;28;20036;-81
2022/12/13 07:08:36;;;;;;;36.77;17.87;;;-7.60;21.50;;;;;;5052962;28;20059;-81
2022/12/13 07:11:03;;;;;;;40.00;18.27;;;-7.50;20.70;;;;;;5053039;28;20782;-81
2022/12/13 07:13:29;;;;;;;41.83;18.02;;;-7.50;21.20;;;;;;5053074;28;20044;-81
2022/12/13 07:15:56;;;;;;;42.17;18.55;;;-7.50;21.60;;;;;;5050439;28;20048;-81
2022/12/13 07:18:22;;;;;;;40.55;17.10;;;-7.40;20.90;;;;;;5008064;28;20052;-82
2022/12/13 07:20:48;;;;;;;36.72;17.63;;;-7.40;20.10;;;;;;5066189;28;20041;-82
2022/12/13 07:23:14;;;;;;;43.70;19.15;;;-7.40;20.10;;;;;;5065131;28;20029;-82
2022/12/13 07:25:52;;;;;;;44.42;19.27;;;-7.40;20.50;;;;;;5056190;28;20033;-81
2022/12/13 07:28:19;;;;;;;33.75;17.23;;;-7.30;20.00;;;;;;5051193;28;20489;-82
2022/12/13 07:30:46;;;;;;;37.95;17.15;;;-7.30;18.90;;;;;;5052734;28;20059;-80
2022/12/13 07:33:13;;;;;;;36.45;16.17;;;-7.30;18.00;;;;;;5034547;28;20039;-82
2022/12/13 07:35:40;;;;;;;40.00;17.70;;;-7.40;17.50;;;;;;5046266;28;20029;-81
2022/12/13 07:38:07;;;;;;;34.95;16.92;;;-7.30;18.00;;;;;;5050971;28;20040;-82
2022/12/13 07:40:35;;;;;;;40.22;16.83;;;-7.30;17.30;;;;;;5034473;28;20049;-82
2022/12/13 07:43:01;;;;;;;32.58;17.52;;;-7.30;16.70;;;;;;5051706;28;20025;-81
2022/12/13 07:45:27;;;;;;;43.58;16.60;;;-7.30;16.50;;;;;;5052782;28;20482;-82
2022/12/13 07:47:54;;;;;;;33.88;18.33;;;-7.30;16.10;;;;;;5050788;28;20047;-81
2022/12/13 07:50:20;;;;;;;43.63;18.65;;;-7.20;16.90;;;;;;5052011;28;20041;-81
2022/12/13 07:52:48;;;;;;;32.30;15.40;;;-7.10;18.20;;;;;;5052853;28;20040;-81
2022/12/13 07:55:14;;;;;;;36.05;17.80;;;-7.10;17.10;;;;;;5052187;28;20036;-83
2022/12/13 07:57:40;;;;;;;46.50;20.67;;;-7.10;16.40;;;;;;5051210;28;20032;-81
2022/12/13 08:00:07;;;;;;;43.50;18.85;;;-7.10;15.70;;;;;;5051755;28;20028;-82
2022/12/13 08:02:40;;;;;;;39.55;18.42;;;-7.00;15.80;;;;;;5058794;28;20402;-82
2022/12/13 08:05:06;;;;;;;38.15;18.63;;;-7.00;15.60;;;;;;5051493;28;20045;-83
2022/12/13 08:07:32;;;;;;;37.08;17.25;;;-6.90;15.40;;;;;;5050717;28;21364;-81
2022/12/13 08:09:58;;;;;;;35.42;17.85;;;-6.80;15.00;;;;;;5034595;28;20485;-80
2022/12/13 08:12:25;;;;;;;37.42;18.48;;;-6.80;15.60;;;;;;5060769;28;20028;-80
2022/12/13 08:14:51;;;;;;;42.90;19.50;;;-6.70;16.00;;;;;;5026916;28;20044;-80
2022/12/13 08:17:17;;;;;;;44.70;19.73;;;-6.60;16.70;;;;;;5060980;28;20021;-78
2022/12/13 08:19:44;;;;;;;40.72;18.73;;;-6.50;16.60;;;;;;5054479;28;20052;-80
2022/12/13 08:22:13;;;;;;;38.22;16.80;;;-6.40;15.10;;;;;;5033201;28;20052;-80
2022/12/13 08:24:39;;;;;;;39.80;17.00;;;-6.40;13.50;;;;;;5052157;28;20045;-82
2022/12/13 08:27:05;;;;;;;42.28;18.17;;;-6.30;12.20;;;;;;5051252;28;20033;-80
2022/12/13 08:29:35;;;;;;;40.63;21.30;;;-6.40;11.10;;;;;;5050273;28;20409;-80
2022/12/13 08:32:07;;;;;;;32.80;17.98;;;-6.30;10.40;;;;;;5052068;28;20028;-80
2022/12/13 08:34:33;;;;;;;40.05;18.95;;;-6.30;9.70;;;;;;5050983;28;20044;-80
2022/12/13 08:36:59;;;;;;;40.40;18.83;;;-6.20;9.30;;;;;;5034179;28;20044;-79
2022/12/13 08:39:26;;;;;;;38.42;18.67;;;-6.10;8.40;;;;;;5049575;28;20029;-80
2022/12/13 08:41:52;;;;;;;35.17;14.90;;;-6.10;7.80;;;;;;5034358;28;20389;-79
2022/12/13 08:44:18;;;;;;;41.20;18.05;;;-6.10;7.00;;;;;;5050851;28;20057;-80
2022/12/13 08:46:44;;;;;;;43.53;20.17;;;-6.10;5.60;;;;;;5051147;28;20045;-82
2022/12/13 08:49:11;;;;;;;39.50;17.70;;;-6.00;5.20;;;;;;5049405;28;20037;-80
2022/12/13 08:51:37;;;;;;;39.85;21.65;;;-5.90;5.40;;;;;;5051664;28;20378;-80
2022/12/13 08:54:03;;;;;;;41.88;19.65;;;-5.90;4.80;;;;;;5050549;28;20442;-80
2022/12/13 08:56:29;;;;;;;33.35;17.75;;;-5.80;4.20;;;;;;5050738;28;20049;-82
2022/12/13 08:58:55;;;;;;;38.22;19.17;;;-5.80;3.20;;;;;;5052265;28;20043;-80
2022/12/13 09:01:22;;;;;;;41.40;18.42;;;-5.80;3.00;;;;;;5066223;28;20029;-81
2022/12/13 09:03:48;;;;;;;36.60;18.92;;;-5.70;2.60;;;;;;5063245;28;20052;-81
2022/12/13 09:06:16;;;;;;;40.28;18.73;;;-5.60;3.40;;;;;;5054763;28;20038;-80
2022/12/13 09:08:42;;;;;;;35.25;17.23;;;-5.60;2.60;;;;;;5019185;28;20064;-80
2022/12/13 09:11:10;;;;;;;39.05;18.42;;;-5.50;2.10;;;;;;5054507;28;20055;-80
2022/12/13 09:13:37;;;;;;;37.15;18.15;;;-5.50;1.00;;;;;;5055221;28;20100;-81
2022/12/13 09:16:05;;;;;;;37.53;18.00;;;-5.50;1.00;;;;;;5055468;28;20056;-77
2022/12/13 09:18:32;;;;;;;37.83;17.58;;;-5.40;1.00;;;;;;5053639;28;20041;-81
2022/12/13 09:20:58;;;;;;;33.63;18.30;;;-5.40;1.00;;;;;;5055623;28;20051;-80
2022/12/13 09:23:24;;;;;;;33.53;18.83;;;-5.30;1.00;;;;;;5055595;28;20273;-81
2022/12/13 09:25:59;;;;;;;36.20;18.88;;;-5.20;1.00;;;;;;5055354;28;20041;-83
2022/12/13 09:28:26;;;;;;;38.17;19.23;;;-5.20;1.00;;;;;;5035080;28;20430;-80
2022/12/13 09:30:52;;;;;;;41.03;19.75;;;-5.10;1.00;;;;;;5055106;28;20036;-80
2022/12/13 09:33:19;;;;;;;43.60;18.80;;;-5.00;1.00;;;;;;5054482;28;20462;-80
2022/12/13 09:35:45;;;;;;;43.58;21.67;;;-4.90;1.00;;;;;;5054665;28;20363;-79
2022/12/13 09:38:12;;;;;;;39.97;19.95;;;-4.90;1.00;;;;;;5052865;28;20104;-81
2022/12/13 09:40:39;;;;;;;39.47;17.73;;;-4.80;1.00;;;;;;5036575;28;20044;-79
2022/12/13 09:43:06;;;;;;;36.85;17.33;;;-4.70;1.00;;;;;;5053964;28;20040;-77
2022/12/13 09:45:34;;;;;;;35.88;18.40;;;-4.70;1.00;;;;;;5054275;28;20036;-79
2022/12/13 09:48:01;;;;;;;43.38;21.08;;;-4.60;1.00;;;;;;5052724;28;20049;-79
2022/12/13 09:50:35;;;;;;;33.95;18.27;;;-4.60;1.00;;;;;;5053758;28;20044;-79
2022/12/13 09:53:05;;;;;;;35.97;18.58;;;-4.50;1.00;;;;;;5054403;28;20025;-80
2022/12/13 09:55:43;;;;;;;40.70;18.35;;;-4.50;1.00;;;;;;5053422;28;20044;-80
2022/12/13 09:58:29;;;;;;;38.28;18.02;;;-4.40;1.00;;;;;;5046147;28;20045;-77
2022/12/13 10:00:57;;;;;;;35.97;16.92;;;-4.30;1.00;;;;;;5054925;28;20040;-79
2022/12/13 10:03:24;;;;;;;36.10;17.50;;;-4.20;1.00;;;;;;5053762;28;20040;-79
2022/12/13 10:06:00;;;;;;;34.38;18.17;;;-4.10;1.00;;;;;;5053863;28;20029;-80
2022/12/13 10:08:33;;;;;;;35.97;18.58;;;-4.00;1.00;;;;;;5051489;28;20399;-80
2022/12/13 10:11:00;;;;;;;42.40;17.52;;;-4.00;1.00;;;;;;5053380;28;20041;-80
2022/12/13 10:13:40;;;;;;;38.88;16.88;;;-3.90;1.00;;;;;;5052466;28;20036;-79
2022/12/13 10:16:19;;;;;;;37.50;18.52;;;-3.90;1.00;;;;;;5053393;28;20332;-76
2022/12/13 10:18:45;;;;;;;35.15;17.45;;;-3.70;1.00;;;;;;5052389;28;20041;-79
2022/12/13 10:21:24;;;;;;;38.72;17.95;;;-3.60;1.00;;;;;;5053019;28;20029;-79
2022/12/13 10:23:51;;;;;;;33.50;16.35;;;-3.60;1.00;;;;;;5035748;28;20037;-80
2022/12/13 10:26:17;;;;;;;37.80;17.35;;;-3.50;1.00;;;;;;5053087;28;20041;-80
2022/12/13 10:28:43;;;;;;;35.20;16.45;;;-3.40;1.00;;;;;;5033513;28;20048;-78
2022/12/13 10:31:19;;;;;;;33.85;16.15;;;-3.40;1.00;;;;;;5052883;28;20032;-79
2022/12/13 10:33:54;;;;;;;31.20;16.92;;;-3.20;1.00;;;;;;5053449;28;20035;-80
2022/12/13 10:36:37;;;;;;;30.92;15.65;;;-3.10;1.00;;;;;;5052946;28;20492;-79
2022/12/13 10:39:03;;;;;;;29.73;16.08;;;-3.00;1.00;;;;;;5052126;28;20037;-79
2022/12/13 10:41:36;;;;;;;33.53;16.38;;;-2.90;1.00;;;;;;5035059;28;20037;-79
2022/12/13 10:44:15;;;;;;;31.58;15.55;;;-2.80;1.00;;;;;;5050730;28;20047;-79
2022/12/13 10:46:51;;;;;;;29.85;14.20;;;-2.70;1.00;;;;;;5071461;28;20033;-79
2022/12/13 10:49:23;;;;;;;30.63;15.98;;;-2.50;1.00;;;;;;5051117;28;20367;-79
2022/12/13 10:51:50;;;;;;;;;;;-2.40;1.00;;;;;;5056965;28;20041;-79
2022/12/13 10:54:26;;;;;;;32.60;14.85;;;-2.20;1.00;;;;;;5053717;28;19905;-78
2022/12/13 10:56:58;;;;;;;27.63;14.52;;;-2.20;1.00;;;;;;5053670;28;20394;-80
2022/12/13 10:59:26;;;;;;;27.95;13.10;;;-2.00;1.00;;;;;;5051361;28;20059;-80
2022/12/13 11:01:53;;;;;;;27.00;13.63;;;-1.90;1.00;;;;;;5052986;28;20036;-80
2022/12/13 11:04:26;;;;;;;21.95;10.45;;;-1.90;1.00;;;;;;5051990;28;20367;-80
2022/12/13 11:06:52;;;;;;;20.27;10.88;;;-1.80;1.00;;;;;;5052825;28;20478;-80
2022/12/13 11:09:29;;;;;;;22.38;11.43;;;-1.70;1.00;;;;;;5051014;28;20060;-79
2022/12/13 11:11:58;;;;;;;22.40;11.55;;;-1.60;1.00;;;;;;5053641;28;20586;-80
2022/12/13 11:14:33;;;;;;;21.00;10.73;;;-1.60;1.00;;;;;;5053088;28;20470;-79
2022/12/13 11:17:09;;;;;;;20.20;11.38;;;-1.50;1.00;;;;;;5052675;28;20044;-80
2022/12/13 11:19:39;;;;;;;18.73;10.32;;;-1.60;1.00;;;;;;5051611;28;20033;-80
2022/12/13 11:22:08;;;;;;;16.45;8.23;;;-1.40;1.00;;;;;;5064314;28;20029;-79
2022/12/13 11:24:41;;;;;;;23.90;10.95;;;-1.30;1.00;;;;;;5051965;28;20040;-80
2022/12/13 11:27:32;;;;;;;23.33;13.18;;;-1.30;1.00;;;;;;5052680;28;20041;-80
2022/12/13 11:30:04;;;;;;;15.80;9.05;;;-1.30;1.00;;;;;;5050697;28;20370;-80
2022/12/13 11:32:56;;;;;;;18.65;9.75;;;-1.10;1.00;;;;;;5033921;28;20053;-79
2022/12/13 11:35:47;;;;;;;23.17;9.50;;;-1.00;1.00;;;;;;5051778;28;20025;-79
2022/12/13 11:38:42;;;;;;;18.25;9.27;;;-1.00;1.00;;;;;;5031711;28;20060;-79
2022/12/13 11:41:18;;;;;;;22.63;11.82;;;-1.00;1.00;;;;;;5052506;28;20485;-80
2022/12/13 11:43:54;;;;;;;18.55;9.75;;;-0.90;1.00;;;;;;5035686;28;20029;-79
2022/12/13 11:46:34;;;;;;;19.17;10.18;;;-0.90;1.00;;;;;;5052202;28;20052;-79
2022/12/13 11:49:09;;;;;;;15.70;8.75;;;-0.90;1.00;;;;;;5050589;28;20051;-80
2022/12/13 11:52:01;;;;;;;19.55;10.68;;;-0.90;1.00;;;;;;5052246;28;20127;-79
2022/12/13 11:54:58;;;;;;;20.70;11.15;;;-0.90;1.00;;;;;;5035094;28;20045;-80
2022/12/13 11:57:36;;;;;;;18.65;9.60;;;-0.90;1.00;;;;;;5045245;28;20414;-80
2022/12/13 12:00:26;;;;;;;25.45;14.70;;;-0.80;1.00;;;;;;5050482;28;20029;-80
2022/12/13 12:02:56;;;;;;;21.83;10.57;;;-0.80;1.00;;;;;;5051780;28;20386;-80
2022/12/13 12:05:22;;;;;;;21.87;10.57;;;-0.80;1.00;;;;;;5051740;28;20033;-80
2022/12/13 12:08:01;;;;;;;20.45;11.90;;;-0.70;1.00;;;;;;5050968;28;20299;-79
2022/12/13 12:11:12;;;;;;;20.40;10.80;;;-0.70;1.00;;;;;;5033828;28;20059;-80
2022/12/13 12:13:55;;;;;;;27.33;12.00;;;-0.60;1.00;;;;;;5051761;28;20044;-79
2022/12/13 12:16:24;;;;;;;26.58;12.73;;;-0.70;1.00;;;;;;5051308;28;20044;-81
2022/12/13 12:18:51;;;;;;;22.75;13.23;;;-0.80;1.00;;;;;;5050570;28;20064;-81
2022/12/13 12:21:30;;;;;;;24.77;11.88;;;-0.80;1.00;;;;;;5051286;28;20037;-81
2022/12/13 12:24:11;;;;;;;22.55;12.93;;;-0.80;1.00;;;;;;5051837;28;20033;-80
2022/12/13 12:26:47;;;;;;;22.00;11.37;;;-0.80;1.00;;;;;;5052044;28;20385;-81
2022/12/13 12:29:18;;;;;;;23.15;12.23;;;-0.80;1.00;;;;;;5050728;28;20397;-77
2022/12/13 12:32:14;;;;;;;25.38;13.20;;;-0.80;1.00;;;;;;5051757;28;20044;-80
2022/12/13 12:35:25;;;;;;;23.05;12.55;;;-0.80;1.00;;;;;;5051192;28;20037;-81
2022/12/13 12:38:03;;;;;;;22.30;13.00;;;-0.90;1.00;;;;;;4973291;28;20355;-80
2022/12/13 12:40:54;;;;;;;29.55;13.02;;;-0.90;1.00;;;;;;5051965;28;20044;-80
2022/12/13 12:43:30;;;;;;;23.50;12.40;;;-0.90;1.00;;;;;;5054201;28;20040;-82
2022/12/13 12:46:26;;;;;;;26.58;14.52;;;-0.90;1.00;;;;;;5056628;28;20033;-79
2022/12/13 12:48:58;;;;;;;24.70;12.65;;;-1.10;1.00;;;;;;5050803;28;20045;-81
2022/12/13 12:52:15;;;;;;;23.98;13.52;;;-1.20;1.00;;;;;;5059513;28;20044;-81
2022/12/13 12:55:02;;;;;;;26.25;13.68;;;-1.20;1.00;;;;;;4991912;28;20470;-80